createdAt,value
2018-05-10T00:00:08.661Z,22.52
2018-05-10T00:00:40.270Z,22.51
2018-05-10T00:01:11.878Z,22.51
2018-05-10T00:01:43.482Z,22.51
2018-05-10T00:02:15.053Z,22.48
2018-05-10T00:02:46.634Z,22.50
2018-05-10T00:03:18.214Z,22.51
2018-05-10T00:03:49.797Z,22.51
2018-05-10T00:04:21.436Z,22.50
2018-05-10T00:04:53.018Z,22.50
2018-05-10T00:05:24.618Z,22.50
2018-05-10T00:05:56.210Z,22.50
2018-05-10T00:06:27.790Z,22.50
2018-05-10T00:06:59.380Z,22.50
2018-05-10T00:07:30.981Z,22.51
2018-05-10T00:08:02.576Z,22.50
2018-05-10T00:08:34.162Z,22.51
2018-05-10T00:09:05.765Z,22.50
2018-05-10T00:09:37.396Z,22.49
2018-05-10T00:10:09.006Z,22.50
2018-05-10T00:10:40.609Z,22.50
2018-05-10T00:11:12.208Z,22.50
2018-05-10T00:11:43.960Z,22.49
2018-05-10T00:12:15.538Z,22.49
2018-05-10T00:12:47.141Z,22.49
2018-05-10T00:13:18.739Z,22.49
2018-05-10T00:13:50.350Z,22.49
2018-05-10T00:14:21.934Z,22.49
2018-05-10T00:14:53.529Z,22.50
2018-05-10T00:15:25.098Z,22.50
2018-05-10T00:15:56.754Z,22.50
2018-05-10T00:16:28.362Z,22.48
2018-05-10T00:16:59.936Z,22.48
2018-05-10T00:17:31.549Z,22.49
2018-05-10T00:18:03.134Z,22.49
2018-05-10T00:18:34.736Z,22.49
2018-05-10T00:19:06.312Z,22.47
2018-05-10T00:19:37.904Z,22.48
2018-05-10T00:20:09.508Z,22.47
2018-05-10T00:20:41.126Z,22.48
2018-05-10T00:21:12.741Z,22.39
2018-05-10T00:21:44.318Z,22.47
2018-05-10T00:22:15.922Z,22.47
2018-05-10T00:22:47.561Z,22.47
2018-05-10T00:23:19.150Z,22.47
2018-05-10T00:23:50.748Z,22.47
2018-05-10T00:24:22.338Z,22.46
2018-05-10T00:24:53.954Z,22.45
2018-05-10T00:25:25.534Z,22.47
2018-05-10T00:25:57.128Z,22.45
2018-05-10T00:26:28.724Z,22.46
2018-05-10T00:27:00.336Z,22.47
2018-05-10T00:27:31.950Z,22.47
2018-05-10T00:28:03.556Z,22.47
2018-05-10T00:28:35.162Z,22.46
2018-05-10T00:29:06.736Z,22.46
2018-05-10T00:29:38.334Z,22.47
2018-05-10T00:30:09.953Z,22.47
2018-05-10T00:30:41.562Z,22.47
2018-05-10T00:31:13.132Z,22.47
2018-05-10T00:31:44.770Z,22.47
2018-05-10T00:32:16.377Z,22.46
2018-05-10T00:32:48.018Z,22.46
2018-05-10T00:33:19.588Z,22.46
2018-05-10T00:33:51.175Z,22.44
2018-05-10T00:34:22.782Z,22.44
2018-05-10T00:34:54.389Z,22.43
2018-05-10T00:35:25.997Z,22.43
2018-05-10T00:35:57.576Z,22.42
2018-05-10T00:36:29.148Z,22.43
2018-05-10T00:37:00.781Z,22.34
2018-05-10T00:37:32.406Z,22.42
2018-05-10T00:38:03.991Z,22.42
2018-05-10T00:38:35.570Z,22.42
2018-05-10T00:39:07.193Z,22.43
2018-05-10T00:39:38.775Z,22.42
2018-05-10T00:40:10.354Z,22.42
2018-05-10T00:40:41.964Z,22.41
2018-05-10T00:41:13.559Z,22.41
2018-05-10T00:41:45.162Z,22.42
2018-05-10T00:42:16.765Z,22.41
2018-05-10T00:42:48.370Z,22.41
2018-05-10T00:43:19.983Z,22.41
2018-05-10T00:43:51.566Z,22.41
2018-05-10T00:44:23.210Z,22.43
2018-05-10T00:44:54.780Z,22.43
2018-05-10T00:45:26.383Z,22.42
2018-05-10T00:45:57.994Z,22.42
2018-05-10T00:46:29.637Z,22.42
2018-05-10T00:47:01.229Z,22.42
2018-05-10T00:47:32.820Z,22.40
2018-05-10T00:48:04.392Z,22.41
2018-05-10T00:48:36.020Z,22.40
2018-05-10T00:49:07.611Z,22.41
2018-05-10T00:49:39.214Z,22.40
2018-05-10T00:50:10.799Z,22.41
2018-05-10T00:50:42.386Z,22.40
2018-05-10T00:51:13.986Z,22.40
2018-05-10T00:51:45.595Z,22.40
2018-05-10T00:52:17.214Z,22.39
2018-05-10T00:52:48.801Z,22.40
2018-05-10T00:53:20.414Z,22.40
2018-05-10T00:53:52.026Z,22.40
2018-05-10T00:54:23.605Z,22.39
2018-05-10T00:54:56.037Z,22.39
2018-05-10T00:55:27.641Z,22.39
2018-05-10T00:55:59.294Z,22.39
2018-05-10T00:56:30.893Z,22.38
2018-05-10T00:57:02.498Z,22.38
2018-05-10T00:57:34.072Z,22.38
2018-05-10T00:58:05.653Z,22.38
2018-05-10T00:58:37.220Z,22.38
2018-05-10T00:59:08.822Z,22.39
2018-05-10T00:59:40.392Z,22.40
2018-05-10T01:00:11.960Z,22.42
2018-05-10T01:00:43.536Z,22.42
2018-05-10T01:01:15.158Z,22.41
2018-05-10T01:01:46.761Z,22.41
2018-05-10T01:02:18.343Z,22.41
2018-05-10T01:02:49.925Z,22.41
2018-05-10T01:03:21.517Z,22.41
2018-05-10T01:03:53.158Z,22.41
2018-05-10T01:04:24.738Z,22.40
2018-05-10T01:04:56.428Z,22.40
2018-05-10T01:05:27.943Z,22.40
2018-05-10T01:05:59.544Z,22.40
2018-05-10T01:06:31.130Z,22.40
2018-05-10T01:07:02.711Z,22.41
2018-05-10T01:07:34.301Z,22.40
2018-05-10T01:08:05.890Z,22.41
2018-05-10T01:08:37.496Z,22.40
2018-05-10T01:09:09.130Z,22.41
2018-05-10T01:09:40.729Z,22.41
2018-05-10T01:10:12.327Z,22.40
2018-05-10T01:10:43.910Z,22.40
2018-05-10T01:11:15.477Z,22.41
2018-05-10T01:11:47.049Z,22.42
2018-05-10T01:12:18.653Z,22.42
2018-05-10T01:12:50.246Z,22.41
2018-05-10T01:13:21.820Z,22.40
2018-05-10T01:13:53.422Z,22.41
2018-05-10T01:14:25.070Z,22.40
2018-05-10T01:14:56.677Z,22.39
2018-05-10T01:15:28.266Z,22.40
2018-05-10T01:15:59.849Z,22.40
2018-05-10T01:16:31.459Z,22.41
2018-05-10T01:17:03.055Z,22.42
2018-05-10T01:17:34.660Z,22.41
2018-05-10T01:18:06.267Z,22.41
2018-05-10T01:18:37.894Z,22.41
2018-05-10T01:19:09.493Z,22.41
2018-05-10T01:19:41.078Z,22.40
2018-05-10T01:20:12.656Z,22.41
2018-05-10T01:20:44.257Z,22.42
2018-05-10T01:21:15.842Z,22.41
2018-05-10T01:21:47.437Z,22.40
2018-05-10T01:22:19.018Z,22.40
2018-05-10T01:22:50.679Z,22.39
2018-05-10T01:23:22.261Z,22.39
2018-05-10T01:23:53.880Z,22.39
2018-05-10T01:24:25.475Z,22.39
2018-05-10T01:24:57.082Z,22.41
2018-05-10T01:25:28.689Z,22.41
2018-05-10T01:26:00.297Z,22.40
2018-05-10T01:26:31.876Z,22.39
2018-05-10T01:27:03.454Z,22.39
2018-05-10T01:27:35.031Z,22.40
2018-05-10T01:28:06.649Z,22.40
2018-05-10T01:28:38.253Z,22.40
2018-05-10T01:29:09.838Z,22.39
2018-05-10T01:29:41.449Z,22.39
2018-05-10T01:30:13.024Z,22.38
2018-05-10T01:30:44.609Z,22.38
2018-05-10T01:31:16.226Z,22.37
2018-05-10T01:31:47.816Z,22.35
2018-05-10T01:32:19.407Z,22.36
2018-05-10T01:32:50.994Z,22.36
2018-05-10T01:33:22.575Z,22.37
2018-05-10T01:33:54.222Z,22.36
2018-05-10T01:34:25.834Z,22.36
2018-05-10T01:34:57.437Z,22.35
2018-05-10T01:35:29.018Z,22.36
2018-05-10T01:36:00.643Z,22.36
2018-05-10T01:36:32.226Z,22.36
2018-05-10T01:37:03.866Z,22.36
2018-05-10T01:37:35.446Z,22.36
2018-05-10T01:38:07.026Z,22.35
2018-05-10T01:38:38.625Z,22.35
2018-05-10T01:39:10.250Z,22.35
2018-05-10T01:39:41.849Z,22.35
2018-05-10T01:40:13.448Z,22.36
2018-05-10T01:40:45.020Z,22.36
2018-05-10T01:41:16.604Z,22.35
2018-05-10T01:41:48.220Z,22.36
2018-05-10T01:42:19.813Z,22.35
2018-05-10T01:42:51.413Z,22.36
2018-05-10T01:43:22.988Z,22.35
2018-05-10T01:43:54.580Z,22.36
2018-05-10T01:44:26.166Z,22.37
2018-05-10T01:44:57.769Z,22.36
2018-05-10T01:45:29.364Z,22.36
2018-05-10T01:46:00.952Z,22.34
2018-05-10T01:46:32.538Z,22.36
2018-05-10T01:47:04.114Z,22.35
2018-05-10T01:47:35.691Z,22.36
2018-05-10T01:48:07.341Z,22.26
2018-05-10T01:48:38.920Z,22.36
2018-05-10T01:49:10.526Z,22.36
2018-05-10T01:49:42.133Z,22.35
2018-05-10T01:50:13.723Z,22.35
2018-05-10T01:50:45.326Z,22.34
2018-05-10T01:51:16.930Z,22.34
2018-05-10T01:51:48.529Z,22.34
2018-05-10T01:52:20.114Z,22.34
2018-05-10T01:52:51.714Z,22.33
2018-05-10T01:53:23.349Z,22.33
2018-05-10T01:53:54.940Z,22.34
2018-05-10T01:54:26.552Z,22.33
2018-05-10T01:54:58.138Z,22.35
2018-05-10T01:55:29.708Z,22.36
2018-05-10T01:56:01.286Z,22.36
2018-05-10T01:56:32.892Z,22.35
2018-05-10T01:57:04.468Z,22.35
2018-05-10T01:57:36.069Z,22.34
2018-05-10T01:58:07.694Z,22.34
2018-05-10T01:58:39.285Z,22.33
2018-05-10T01:59:10.894Z,22.34
2018-05-10T01:59:42.478Z,22.33
2018-05-10T02:00:14.071Z,22.34
2018-05-10T02:00:45.644Z,22.33
2018-05-10T02:01:17.245Z,22.33
2018-05-10T02:01:48.870Z,22.32
2018-05-10T02:02:20.454Z,22.32
2018-05-10T02:02:52.074Z,22.31
2018-05-10T02:03:23.650Z,22.31
2018-05-10T02:03:55.245Z,22.31
2018-05-10T02:04:26.825Z,22.30
2018-05-10T02:04:58.416Z,22.30
2018-05-10T02:05:29.989Z,22.28
2018-05-10T02:06:01.557Z,22.31
2018-05-10T02:06:33.148Z,22.29
2018-05-10T02:07:04.741Z,22.29
2018-05-10T02:07:36.352Z,22.29
2018-05-10T02:08:07.940Z,22.30
2018-05-10T02:08:39.558Z,22.29
2018-05-10T02:09:11.164Z,22.29
2018-05-10T02:09:42.760Z,22.29
2018-05-10T02:10:14.350Z,22.30
2018-05-10T02:10:45.930Z,22.28
2018-05-10T02:11:17.535Z,22.28
2018-05-10T02:11:49.178Z,22.27
2018-05-10T02:12:20.846Z,22.27
2018-05-10T02:12:52.427Z,22.27
2018-05-10T02:13:24.026Z,22.27
2018-05-10T02:13:55.634Z,22.27
2018-05-10T02:14:27.222Z,22.26
2018-05-10T02:14:58.829Z,22.26
2018-05-10T02:15:30.438Z,22.25
2018-05-10T02:16:02.046Z,22.26
2018-05-10T02:16:33.630Z,22.26
2018-05-10T02:17:05.214Z,22.26
2018-05-10T02:17:36.879Z,22.27
2018-05-10T02:18:08.486Z,22.28
2018-05-10T02:18:40.066Z,22.29
2018-05-10T02:19:11.669Z,22.31
2018-05-10T02:19:43.257Z,22.30
2018-05-10T02:20:14.825Z,22.32
2018-05-10T02:20:46.430Z,22.31
2018-05-10T02:21:18.042Z,22.31
2018-05-10T02:21:49.626Z,22.32
2018-05-10T02:22:21.196Z,22.32
2018-05-10T02:22:52.829Z,22.31
2018-05-10T02:23:24.414Z,22.31
2018-05-10T02:23:56.004Z,22.30
2018-05-10T02:24:27.609Z,22.30
2018-05-10T02:24:59.218Z,22.29
2018-05-10T02:25:30.798Z,22.29
2018-05-10T02:26:02.407Z,22.29
2018-05-10T02:26:34.022Z,22.29
2018-05-10T02:27:05.592Z,22.29
2018-05-10T02:27:37.160Z,22.29
2018-05-10T02:28:08.771Z,22.27
2018-05-10T02:28:40.340Z,22.29
2018-05-10T02:29:11.922Z,22.29
2018-05-10T02:29:43.504Z,22.30
2018-05-10T02:30:15.095Z,22.30
2018-05-10T02:30:46.722Z,22.30
2018-05-10T02:31:18.321Z,22.30
2018-05-10T02:31:49.921Z,22.29
2018-05-10T02:32:21.526Z,22.28
2018-05-10T02:32:53.129Z,22.28
2018-05-10T02:33:24.725Z,22.29
2018-05-10T02:33:56.305Z,22.29
2018-05-10T02:34:27.901Z,22.29
2018-05-10T02:34:59.522Z,22.30
2018-05-10T02:35:31.118Z,22.29
2018-05-10T02:36:02.689Z,22.28
2018-05-10T02:36:34.276Z,22.27
2018-05-10T02:37:05.862Z,22.27
2018-05-10T02:37:37.471Z,22.27
2018-05-10T02:38:09.077Z,22.27
2018-05-10T02:38:40.658Z,22.27
2018-05-10T02:39:12.299Z,22.26
2018-05-10T02:39:43.889Z,22.26
2018-05-10T02:40:15.470Z,22.26
2018-05-10T02:40:47.045Z,22.26
2018-05-10T02:41:18.646Z,22.25
2018-05-10T02:41:50.254Z,22.24
2018-05-10T02:42:21.856Z,22.25
2018-05-10T02:42:53.438Z,22.25
2018-05-10T02:43:25.042Z,22.24
2018-05-10T02:43:56.646Z,22.24
2018-05-10T02:44:28.260Z,22.24
2018-05-10T02:44:59.847Z,22.24
2018-05-10T02:45:31.457Z,22.25
2018-05-10T02:46:03.058Z,22.24
2018-05-10T02:46:34.642Z,22.23
2018-05-10T02:47:06.300Z,22.24
2018-05-10T02:47:37.855Z,22.23
2018-05-10T02:48:09.476Z,22.23
2018-05-10T02:48:41.081Z,22.23
2018-05-10T02:49:12.693Z,22.23
2018-05-10T02:49:44.275Z,22.23
2018-05-10T02:50:15.877Z,22.21
2018-05-10T02:50:47.469Z,22.23
2018-05-10T02:51:19.047Z,22.23
2018-05-10T02:51:50.649Z,22.22
2018-05-10T02:52:22.302Z,22.22
2018-05-10T02:52:53.895Z,22.22
2018-05-10T02:53:25.498Z,22.21
2018-05-10T02:53:57.098Z,22.22
2018-05-10T02:54:28.668Z,22.22
2018-05-10T02:55:00.250Z,22.22
2018-05-10T02:55:31.827Z,22.22
2018-05-10T02:56:03.469Z,22.21
2018-05-10T02:56:35.079Z,22.21
2018-05-10T02:57:06.670Z,22.22
2018-05-10T02:57:38.278Z,22.22
2018-05-10T02:58:09.891Z,22.21
2018-05-10T02:58:41.489Z,22.20
2018-05-10T02:59:13.092Z,22.21
2018-05-10T02:59:44.701Z,22.20
2018-05-10T03:00:16.305Z,22.21
2018-05-10T03:00:47.934Z,22.20
2018-05-10T03:01:19.570Z,22.20
2018-05-10T03:01:51.161Z,22.19
2018-05-10T03:02:22.757Z,22.20
2018-05-10T03:02:54.361Z,22.17
2018-05-10T03:03:25.955Z,22.20
2018-05-10T03:03:57.569Z,22.19
2018-05-10T03:04:29.173Z,22.19
2018-05-10T03:05:00.778Z,22.18
2018-05-10T03:05:32.391Z,22.19
2018-05-10T03:06:03.984Z,22.19
2018-05-10T03:06:35.629Z,22.19
2018-05-10T03:07:07.228Z,22.19
2018-05-10T03:07:38.874Z,22.19
2018-05-10T03:08:10.469Z,22.19
2018-05-10T03:08:42.048Z,22.19
2018-05-10T03:09:13.658Z,22.18
2018-05-10T03:09:45.242Z,22.18
2018-05-10T03:10:16.808Z,22.18
2018-05-10T03:10:48.390Z,22.18
2018-05-10T03:11:19.969Z,22.19
2018-05-10T03:11:51.574Z,22.18
2018-05-10T03:12:23.177Z,22.18
2018-05-10T03:12:54.761Z,22.18
2018-05-10T03:13:26.392Z,22.17
2018-05-10T03:13:57.978Z,22.15
2018-05-10T03:14:29.583Z,22.17
2018-05-10T03:15:01.242Z,22.17
2018-05-10T03:15:32.812Z,22.18
2018-05-10T03:16:04.390Z,22.18
2018-05-10T03:16:35.957Z,22.18
2018-05-10T03:17:07.563Z,22.18
2018-05-10T03:17:39.172Z,22.18
2018-05-10T03:18:10.764Z,22.18
2018-05-10T03:18:42.390Z,22.18
2018-05-10T03:19:14.003Z,22.18
2018-05-10T03:19:45.576Z,22.18
2018-05-10T03:20:17.178Z,22.19
2018-05-10T03:20:48.762Z,22.19
2018-05-10T03:21:20.342Z,22.18
2018-05-10T03:21:51.982Z,22.20
2018-05-10T03:22:23.566Z,22.19
2018-05-10T03:22:55.157Z,22.20
2018-05-10T03:23:26.767Z,22.20
2018-05-10T03:23:58.354Z,22.20
2018-05-10T03:24:29.944Z,22.19
2018-05-10T03:25:01.557Z,22.19
2018-05-10T03:25:33.208Z,22.19
2018-05-10T03:26:04.810Z,22.19
2018-05-10T03:26:36.389Z,22.19
2018-05-10T03:27:07.989Z,22.19
2018-05-10T03:27:39.575Z,22.18
2018-05-10T03:28:11.153Z,22.18
2018-05-10T03:28:42.745Z,22.18
2018-05-10T03:29:14.357Z,22.18
2018-05-10T03:29:45.968Z,22.18
2018-05-10T03:30:17.559Z,22.18
2018-05-10T03:30:49.129Z,22.18
2018-05-10T03:31:20.697Z,22.17
2018-05-10T03:31:52.265Z,22.18
2018-05-10T03:32:23.865Z,22.19
2018-05-10T03:32:55.436Z,22.18
2018-05-10T03:33:27.046Z,22.20
2018-05-10T03:33:58.654Z,22.20
2018-05-10T03:34:30.245Z,22.20
2018-05-10T03:35:01.941Z,22.21
2018-05-10T03:35:33.539Z,22.19
2018-05-10T03:36:05.127Z,22.20
2018-05-10T03:36:36.725Z,22.20
2018-05-10T03:37:08.310Z,22.20
2018-05-10T03:37:39.881Z,22.21
2018-05-10T03:38:11.481Z,22.20
2018-05-10T03:38:43.065Z,22.20
2018-05-10T03:39:14.669Z,22.19
2018-05-10T03:39:46.265Z,22.19
2018-05-10T03:40:17.884Z,22.19
2018-05-10T03:40:49.462Z,22.19
2018-05-10T03:41:21.107Z,22.19
2018-05-10T03:41:52.694Z,22.19
2018-05-10T03:42:24.297Z,22.19
2018-05-10T03:42:55.923Z,22.19
2018-05-10T03:43:27.503Z,22.19
2018-05-10T03:43:59.086Z,22.19
2018-05-10T03:44:30.706Z,22.19
2018-05-10T03:45:02.314Z,22.19
2018-05-10T03:45:33.902Z,22.19
2018-05-10T03:46:05.507Z,22.20
2018-05-10T03:46:37.106Z,22.20
2018-05-10T03:47:08.691Z,22.19
2018-05-10T03:47:40.270Z,22.19
2018-05-10T03:48:11.860Z,22.19
2018-05-10T03:48:43.433Z,22.19
2018-05-10T03:49:15.041Z,22.18
2018-05-10T03:49:46.658Z,22.18
2018-05-10T03:50:18.256Z,22.18
2018-05-10T03:50:49.902Z,22.18
2018-05-10T03:51:21.490Z,22.17
2018-05-10T03:51:53.070Z,22.17
2018-05-10T03:52:24.664Z,22.16
2018-05-10T03:52:56.274Z,22.16
2018-05-10T03:53:27.863Z,22.17
2018-05-10T03:53:59.446Z,22.17
2018-05-10T03:54:31.171Z,22.16
2018-05-10T03:55:02.718Z,22.16
2018-05-10T03:55:34.285Z,22.16
2018-05-10T03:56:05.853Z,22.15
2018-05-10T03:56:37.432Z,22.15
2018-05-10T03:57:09.024Z,22.16
2018-05-10T03:57:40.605Z,22.16
2018-05-10T03:58:12.210Z,22.15
2018-05-10T03:58:43.818Z,22.15
2018-05-10T03:59:15.413Z,22.15
2018-05-10T03:59:47.018Z,22.16
2018-05-10T04:00:18.589Z,22.16
2018-05-10T04:00:50.157Z,22.16
2018-05-10T04:01:21.808Z,22.14
2018-05-10T04:01:53.404Z,22.14
2018-05-10T04:02:24.982Z,22.14
2018-05-10T04:02:56.552Z,22.13
2018-05-10T04:03:28.165Z,22.14
2018-05-10T04:03:59.757Z,22.13
2018-05-10T04:04:31.354Z,22.13
2018-05-10T04:05:02.961Z,22.13
2018-05-10T04:05:34.546Z,22.14
2018-05-10T04:06:06.240Z,22.14
2018-05-10T04:06:37.762Z,22.14
2018-05-10T04:07:09.337Z,22.15
2018-05-10T04:07:40.934Z,22.15
2018-05-10T04:08:12.591Z,22.15
2018-05-10T04:08:44.168Z,22.15
2018-05-10T04:09:15.748Z,22.15
2018-05-10T04:09:47.340Z,22.15
2018-05-10T04:10:18.922Z,22.15
2018-05-10T04:10:50.493Z,22.15
2018-05-10T04:11:22.070Z,22.15
2018-05-10T04:11:53.660Z,22.15
2018-05-10T04:12:25.266Z,22.14
2018-05-10T04:12:56.854Z,22.13
2018-05-10T04:13:28.433Z,22.18
2018-05-10T04:14:00.065Z,22.19
2018-05-10T04:14:31.665Z,22.21
2018-05-10T04:15:03.313Z,22.22
2018-05-10T04:15:34.897Z,22.23
2018-05-10T04:16:06.501Z,22.25
2018-05-10T04:16:38.090Z,22.29
2018-05-10T04:17:09.680Z,22.29
2018-05-10T04:17:41.252Z,22.39
2018-05-10T04:18:12.832Z,22.56
2018-05-10T04:18:44.410Z,22.75
2018-05-10T04:19:16.057Z,22.97
2018-05-10T04:19:47.662Z,23.14
2018-05-10T04:20:19.273Z,23.29
2018-05-10T04:20:50.882Z,23.47
2018-05-10T04:21:22.465Z,23.65
2018-05-10T04:21:54.073Z,23.77
2018-05-10T04:22:25.640Z,23.90
2018-05-10T04:22:57.221Z,24.00
2018-05-10T04:23:28.788Z,24.10
2018-05-10T04:24:00.400Z,24.22
2018-05-10T04:24:31.982Z,24.30
2018-05-10T04:25:03.583Z,24.37
2018-05-10T04:25:35.161Z,24.41
2018-05-10T04:26:06.746Z,24.46
2018-05-10T04:26:38.350Z,24.48
2018-05-10T04:27:10.026Z,24.48
2018-05-10T04:27:41.634Z,24.48
2018-05-10T04:28:13.218Z,24.45
2018-05-10T04:28:44.801Z,24.43
2018-05-10T04:29:16.406Z,24.42
2018-05-10T04:29:47.977Z,24.40
2018-05-10T04:30:19.559Z,24.38
2018-05-10T04:30:51.145Z,24.35
2018-05-10T04:31:22.785Z,24.31
2018-05-10T04:31:54.380Z,24.25
2018-05-10T04:32:25.990Z,24.16
2018-05-10T04:32:57.584Z,24.06
2018-05-10T04:33:29.177Z,23.97
2018-05-10T04:34:00.791Z,23.89
2018-05-10T04:34:32.402Z,23.84
2018-05-10T04:35:03.986Z,23.78
2018-05-10T04:35:35.577Z,23.75
2018-05-10T04:36:07.185Z,23.72
2018-05-10T04:36:38.820Z,23.68
2018-05-10T04:37:10.425Z,23.64
2018-05-10T04:37:42.074Z,23.56
2018-05-10T04:38:13.688Z,23.42
2018-05-10T04:38:45.309Z,23.38
2018-05-10T04:39:16.939Z,23.30
2018-05-10T04:39:48.549Z,23.22
2018-05-10T04:40:20.133Z,23.12
2018-05-10T04:40:51.734Z,23.02
2018-05-10T04:41:23.337Z,22.97
2018-05-10T04:41:54.962Z,22.91
2018-05-10T04:42:26.566Z,22.82
2018-05-10T04:42:58.178Z,22.74
2018-05-10T04:43:29.758Z,22.68
2018-05-10T04:44:01.338Z,22.65
2018-05-10T04:44:32.905Z,22.61
2018-05-10T04:45:04.486Z,22.56
2018-05-10T04:45:36.093Z,22.54
2018-05-10T04:46:07.670Z,22.51
2018-05-10T04:46:39.287Z,22.48
2018-05-10T04:47:10.893Z,22.46
2018-05-10T04:47:42.465Z,22.42
2018-05-10T04:48:14.066Z,22.43
2018-05-10T04:48:45.662Z,22.41
2018-05-10T04:49:17.253Z,22.40
2018-05-10T04:49:48.846Z,22.39
2018-05-10T04:50:20.422Z,22.37
2018-05-10T04:50:52.050Z,22.36
2018-05-10T04:51:23.633Z,22.34
2018-05-10T04:51:55.201Z,22.33
2018-05-10T04:52:26.819Z,22.32
2018-05-10T04:52:58.416Z,22.31
2018-05-10T04:53:30.022Z,22.30
2018-05-10T04:54:01.616Z,22.30
2018-05-10T04:54:33.192Z,22.29
2018-05-10T04:55:04.778Z,22.29
2018-05-10T04:55:36.369Z,22.29
2018-05-10T04:56:07.950Z,22.28
2018-05-10T04:56:39.534Z,22.27
2018-05-10T04:57:11.134Z,22.28
2018-05-10T04:57:42.721Z,22.27
2018-05-10T04:58:14.329Z,22.26
2018-05-10T04:58:45.924Z,22.26
2018-05-10T04:59:17.521Z,22.26
2018-05-10T04:59:49.154Z,22.26
2018-05-10T05:00:20.757Z,22.26
2018-05-10T05:00:52.348Z,22.25
2018-05-10T05:01:23.930Z,22.24
2018-05-10T05:01:55.528Z,22.24
2018-05-10T05:02:27.134Z,22.25
2018-05-10T05:02:58.737Z,22.27
2018-05-10T05:03:30.401Z,22.26
2018-05-10T05:04:01.958Z,22.27
2018-05-10T05:04:33.558Z,22.27
2018-05-10T05:05:05.170Z,22.29
2018-05-10T05:05:36.774Z,22.28
2018-05-10T05:06:08.368Z,22.28
2018-05-10T05:06:40.053Z,22.28
2018-05-10T05:07:11.606Z,22.27
2018-05-10T05:07:43.243Z,22.26
2018-05-10T05:08:14.830Z,22.28
2018-05-10T05:08:46.438Z,22.28
2018-05-10T05:09:18.073Z,22.26
2018-05-10T05:09:49.683Z,22.25
2018-05-10T05:10:21.278Z,22.25
2018-05-10T05:10:52.864Z,22.25
2018-05-10T05:11:24.452Z,22.26
2018-05-10T05:11:56.080Z,22.24
2018-05-10T05:12:27.710Z,22.26
2018-05-10T05:12:59.290Z,22.26
2018-05-10T05:13:30.870Z,22.25
2018-05-10T05:14:02.440Z,22.25
2018-05-10T05:14:34.018Z,22.25
2018-05-10T05:15:05.630Z,22.25
2018-05-10T05:15:37.235Z,22.25
2018-05-10T05:16:08.822Z,22.26
2018-05-10T05:16:40.430Z,22.25
2018-05-10T05:17:12.010Z,22.26
2018-05-10T05:17:43.640Z,22.27
2018-05-10T05:18:15.245Z,22.27
2018-05-10T05:18:46.829Z,22.26
2018-05-10T05:19:18.434Z,22.27
2018-05-10T05:19:50.018Z,22.27
2018-05-10T05:20:21.588Z,22.27
2018-05-10T05:20:53.166Z,22.28
2018-05-10T05:21:24.863Z,22.30
2018-05-10T05:21:56.430Z,22.30
2018-05-10T05:22:28.042Z,22.28
2018-05-10T05:22:59.621Z,22.27
2018-05-10T05:23:31.188Z,22.27
2018-05-10T05:24:02.766Z,22.26
2018-05-10T05:24:34.356Z,22.26
2018-05-10T05:25:05.928Z,22.26
2018-05-10T05:25:37.510Z,22.26
2018-05-10T05:26:09.110Z,22.26
2018-05-10T05:26:40.681Z,22.26
2018-05-10T05:27:12.262Z,22.25
2018-05-10T05:27:43.846Z,22.25
2018-05-10T05:28:15.435Z,22.24
2018-05-10T05:28:47.008Z,22.23
2018-05-10T05:29:18.654Z,22.23
2018-05-10T05:29:50.234Z,22.22
2018-05-10T05:30:21.814Z,22.22
2018-05-10T05:30:53.429Z,22.22
2018-05-10T05:31:25.034Z,22.22
2018-05-10T05:31:56.622Z,22.22
2018-05-10T05:32:28.221Z,22.22
2018-05-10T05:32:59.830Z,22.21
2018-05-10T05:33:31.410Z,22.20
2018-05-10T05:34:03.037Z,22.20
2018-05-10T05:34:34.614Z,22.20
2018-05-10T05:35:06.207Z,22.21
2018-05-10T05:35:37.890Z,22.21
2018-05-10T05:36:09.437Z,22.23
2018-05-10T05:36:41.079Z,22.24
2018-05-10T05:37:12.670Z,22.23
2018-05-10T05:37:44.236Z,22.23
2018-05-10T05:38:15.833Z,22.20
2018-05-10T05:38:47.417Z,22.24
2018-05-10T05:39:19.018Z,22.23
2018-05-10T05:39:50.589Z,22.23
2018-05-10T05:40:22.166Z,22.22
2018-05-10T05:40:53.760Z,22.22
2018-05-10T05:41:25.378Z,22.19
2018-05-10T05:41:56.985Z,22.22
2018-05-10T05:42:28.618Z,22.21
2018-05-10T05:43:00.198Z,22.22
2018-05-10T05:43:31.891Z,22.22
2018-05-10T05:44:03.391Z,22.19
2018-05-10T05:44:34.966Z,22.20
2018-05-10T05:45:06.566Z,22.20
2018-05-10T05:45:38.170Z,22.18
2018-05-10T05:46:09.777Z,22.20
2018-05-10T05:46:41.382Z,22.21
2018-05-10T05:47:12.966Z,22.22
2018-05-10T05:47:44.590Z,22.22
2018-05-10T05:48:16.180Z,22.22
2018-05-10T05:48:47.785Z,22.22
2018-05-10T05:49:19.394Z,22.21
2018-05-10T05:49:50.998Z,22.22
2018-05-10T05:50:22.634Z,22.22
2018-05-10T05:50:54.211Z,22.22
2018-05-10T05:51:25.818Z,22.22
2018-05-10T05:51:57.412Z,22.22
2018-05-10T05:52:28.988Z,22.22
2018-05-10T05:53:00.581Z,22.21
2018-05-10T05:53:32.172Z,22.22
2018-05-10T05:54:03.779Z,22.23
2018-05-10T05:54:35.363Z,22.22
2018-05-10T05:55:07.017Z,22.22
2018-05-10T05:55:38.565Z,22.21
2018-05-10T05:56:10.133Z,22.21
2018-05-10T05:56:41.715Z,22.19
2018-05-10T05:57:13.308Z,22.21
2018-05-10T05:57:44.890Z,22.21
2018-05-10T05:58:16.465Z,22.21
2018-05-10T05:58:48.066Z,22.21
2018-05-10T05:59:19.646Z,22.22
2018-05-10T05:59:51.248Z,22.21
2018-05-10T06:00:22.834Z,22.20
2018-05-10T06:00:54.504Z,22.20
2018-05-10T06:01:26.022Z,22.20
2018-05-10T06:01:57.607Z,22.19
2018-05-10T06:02:29.183Z,22.20
2018-05-10T06:03:00.790Z,22.20
2018-05-10T06:03:32.403Z,22.22
2018-05-10T06:04:03.990Z,22.21
2018-05-10T06:04:35.574Z,22.21
2018-05-10T06:05:07.165Z,22.21
2018-05-10T06:05:38.776Z,22.20
2018-05-10T06:06:10.421Z,22.20
2018-05-10T06:06:42.002Z,22.21
2018-05-10T06:07:13.572Z,22.21
2018-05-10T06:07:45.163Z,22.21
2018-05-10T06:08:16.753Z,22.22
2018-05-10T06:08:48.404Z,22.22
2018-05-10T06:09:19.998Z,22.23
2018-05-10T06:09:51.606Z,22.23
2018-05-10T06:10:23.199Z,22.22
2018-05-10T06:10:54.845Z,22.22
2018-05-10T06:11:26.510Z,22.22
2018-05-10T06:11:58.124Z,22.21
2018-05-10T06:12:29.708Z,22.23
2018-05-10T06:13:01.300Z,22.25
2018-05-10T06:13:32.910Z,22.26
2018-05-10T06:14:04.485Z,22.26
2018-05-10T06:14:36.066Z,22.27
2018-05-10T06:15:07.670Z,22.28
2018-05-10T06:15:39.305Z,22.28
2018-05-10T06:16:10.843Z,22.29
2018-05-10T06:16:42.494Z,22.30
2018-05-10T06:17:14.071Z,22.32
2018-05-10T06:17:45.670Z,22.34
2018-05-10T06:18:17.250Z,22.35
2018-05-10T06:18:48.830Z,22.37
2018-05-10T06:19:20.414Z,22.37
2018-05-10T06:19:51.994Z,22.39
2018-05-10T06:20:23.606Z,22.41
2018-05-10T06:20:55.186Z,22.42
2018-05-10T06:21:26.824Z,22.43
2018-05-10T06:21:58.481Z,22.43
2018-05-10T06:22:30.072Z,22.45
2018-05-10T06:23:01.673Z,22.45
2018-05-10T06:23:33.258Z,22.46
2018-05-10T06:24:04.865Z,22.52
2018-05-10T06:24:36.461Z,22.51
2018-05-10T06:25:08.164Z,22.50
2018-05-10T06:25:39.696Z,22.53
2018-05-10T06:26:11.301Z,22.53
2018-05-10T06:26:42.890Z,22.56
2018-05-10T06:27:14.528Z,22.58
2018-05-10T06:27:46.125Z,22.58
2018-05-10T06:28:17.706Z,22.60
2018-05-10T06:28:49.298Z,22.60
2018-05-10T06:29:20.874Z,22.61
2018-05-10T06:29:52.482Z,22.60
2018-05-10T06:30:24.086Z,22.59
2018-05-10T06:30:55.702Z,22.57
2018-05-10T06:31:27.355Z,22.59
2018-05-10T06:31:58.888Z,22.60
2018-05-10T06:32:30.524Z,22.62
2018-05-10T06:33:02.126Z,22.63
2018-05-10T06:33:33.710Z,22.63
2018-05-10T06:34:05.378Z,22.63
2018-05-10T06:34:36.929Z,22.63
2018-05-10T06:35:08.531Z,22.64
2018-05-10T06:35:40.123Z,22.64
2018-05-10T06:36:11.710Z,22.65
2018-05-10T06:36:43.300Z,22.66
2018-05-10T06:37:14.882Z,22.65
2018-05-10T06:37:46.465Z,22.65
2018-05-10T06:38:19.114Z,22.65
2018-05-10T06:38:50.698Z,22.65
2018-05-10T06:39:22.264Z,22.64
2018-05-10T06:39:53.842Z,22.66
2018-05-10T06:40:25.422Z,22.67
2018-05-10T06:40:57.006Z,22.68
2018-05-10T06:41:28.684Z,22.70
2018-05-10T06:42:00.267Z,22.70
2018-05-10T06:42:31.850Z,22.71
2018-05-10T06:43:03.434Z,22.71
2018-05-10T06:43:35.004Z,22.73
2018-05-10T06:44:06.615Z,22.73
2018-05-10T06:44:38.217Z,22.75
2018-05-10T06:45:09.807Z,22.75
2018-05-10T06:45:41.440Z,22.75
2018-05-10T06:46:13.016Z,22.73
2018-05-10T06:46:44.676Z,22.75